sensor_id;sensor_type;location;lat;lon;timestamp;temperature;humidity
22161;DHT22;49035;48.812;11.762;2023-01-01T00:00:15;3.80;99.90
22161;DHT22;49035;48.812;11.762;2023-01-01T00:02:41;3.80;99.90
22161;DHT22;49035;48.812;11.762;2023-01-01T00:05:07;3.70;99.90
22161;DHT22;49035;48.812;11.762;2023-01-01T00:07:33;3.80;99.90
22161;DHT22;49035;48.812;11.762;2023-01-01T00:09:59;3.70;99.90
22161;DHT22;49035;48.812;11.762;2023-01-01T00:12:43;3.80;99.90
22161;DHT22;49035;48.812;11.762;2023-01-01T00:15:08;3.80;99.90
22161;DHT22;49035;48.812;11.762;2023-01-01T00:17:34;3.80;99.90
22161;DHT22;49035;48.812;11.762;2023-01-01T00:19:59;3.60;99.90
22161;DHT22;49035;48.812;11.762;2023-01-01T00:22:25;3.60;99.90
22161;DHT22;49035;48.812;11.762;2023-01-01T00:24:51;3.60;99.90
22161;DHT22;49035;48.812;11.762;2023-01-01T00:27:16;3.70;99.90
22161;DHT22;49035;48.812;11.762;2023-01-01T00:29:42;3.50;99.90
22161;DHT22;49035;48.812;11.762;2023-01-01T00:32:08;3.50;99.90
22161;DHT22;49035;48.812;11.762;2023-01-01T00:34:33;3.50;99.90
22161;DHT22;49035;48.812;11.762;2023-01-01T00:36:59;3.50;99.90
22161;DHT22;49035;48.812;11.762;2023-01-01T00:39:24;3.50;99.90
22161;DHT22;49035;48.812;11.762;2023-01-01T00:41:50;3.40;99.90
22161;DHT22;49035;48.812;11.762;2023-01-01T00:44:16;3.50;99.90
22161;DHT22;49035;48.812;11.762;2023-01-01T00:46:41;3.50;99.90
22161;DHT22;49035;48.812;11.762;2023-01-01T00:49:07;3.50;99.90
22161;DHT22;49035;48.812;11.762;2023-01-01T00:51:32;3.60;99.90
22161;DHT22;49035;48.812;11.762;2023-01-01T00:53:58;3.70;99.90
22161;DHT22;49035;48.812;11.762;2023-01-01T00:56:23;3.70;99.90
22161;DHT22;49035;48.812;11.762;2023-01-01T00:58:49;3.70;99.90
22161;DHT22;49035;48.812;11.762;2023-01-01T01:01:15;3.70;99.90
22161;DHT22;49035;48.812;11.762;2023-01-01T01:03:40;3.70;99.90
22161;DHT22;49035;48.812;11.762;2023-01-01T01:06:07;3.60;99.90
22161;DHT22;49035;48.812;11.762;2023-01-01T01:08:36;3.50;99.90
22161;DHT22;49035;48.812;11.762;2023-01-01T01:13:32;3.50;99.90
22161;DHT22;49035;48.812;11.762;2023-01-01T01:15:57;3.40;99.90
22161;DHT22;49035;48.812;11.762;2023-01-01T01:18:23;3.30;99.90
22161;DHT22;49035;48.812;11.762;2023-01-01T01:20:52;3.30;99.90
22161;DHT22;49035;48.812;11.762;2023-01-01T01:23:19;3.20;99.90
22161;DHT22;49035;48.812;11.762;2023-01-01T01:25:45;3.20;99.90
22161;DHT22;49035;48.812;11.762;2023-01-01T01:28:10;3.20;99.90
22161;DHT22;49035;48.812;11.762;2023-01-01T01:30:37;3.10;99.90
22161;DHT22;49035;48.812;11.762;2023-01-01T01:33:03;3.00;99.90
22161;DHT22;49035;48.812;11.762;2023-01-01T01:35:29;3.00;99.90
22161;DHT22;49035;48.812;11.762;2023-01-01T01:37:55;3.00;99.90
22161;DHT22;49035;48.812;11.762;2023-01-01T01:40:21;2.90;99.90
22161;DHT22;49035;48.812;11.762;2023-01-01T01:42:47;3.00;99.90
22161;DHT22;49035;48.812;11.762;2023-01-01T01:45:15;3.10;99.90
22161;DHT22;49035;48.812;11.762;2023-01-01T01:47:50;3.20;99.90
22161;DHT22;49035;48.812;11.762;2023-01-01T01:50:24;3.10;99.90
22161;DHT22;49035;48.812;11.762;2023-01-01T01:55:28;3.20;99.90
22161;DHT22;49035;48.812;11.762;2023-01-01T01:57:55;3.20;99.90
22161;DHT22;49035;48.812;11.762;2023-01-01T02:00:21;3.10;99.90
22161;DHT22;49035;48.812;11.762;2023-01-01T02:03:06;3.10;99.90
22161;DHT22;49035;48.812;11.762;2023-01-01T02:05:32;3.10;99.90
22161;DHT22;49035;48.812;11.762;2023-01-01T02:07:59;3.10;99.90
22161;DHT22;49035;48.812;11.762;2023-01-01T02:10:26;3.10;99.90
22161;DHT22;49035;48.812;11.762;2023-01-01T02:12:52;3.20;99.90
22161;DHT22;49035;48.812;11.762;2023-01-01T02:15:18;3.20;99.90
22161;DHT22;49035;48.812;11.762;2023-01-01T02:23:14;3.20;99.90
22161;DHT22;49035;48.812;11.762;2023-01-01T02:31:23;3.20;99.90
22161;DHT22;49035;48.812;11.762;2023-01-01T02:33:53;3.10;99.90
22161;DHT22;49035;48.812;11.762;2023-01-01T02:36:21;3.10;99.90
22161;DHT22;49035;48.812;11.762;2023-01-01T02:38:51;3.00;99.90
22161;DHT22;49035;48.812;11.762;2023-01-01T02:43:47;2.90;99.90
22161;DHT22;49035;48.812;11.762;2023-01-01T02:46:12;2.80;99.90
22161;DHT22;49035;48.812;11.762;2023-01-01T02:48:44;2.80;99.90
22161;DHT22;49035;48.812;11.762;2023-01-01T02:59:21;2.80;99.90
22161;DHT22;49035;48.812;11.762;2023-01-01T03:08:16;2.90;99.90
22161;DHT22;49035;48.812;11.762;2023-01-01T03:11:07;2.90;99.90
22161;DHT22;49035;48.812;11.762;2023-01-01T03:16:37;2.90;99.90
22161;DHT22;49035;48.812;11.762;2023-01-01T03:19:17;2.80;99.90
22161;DHT22;49035;48.812;11.762;2023-01-01T03:21:50;2.90;99.90
22161;DHT22;49035;48.812;11.762;2023-01-01T03:24:22;2.70;99.90
22161;DHT22;49035;48.812;11.762;2023-01-01T03:26:52;2.70;99.90
22161;DHT22;49035;48.812;11.762;2023-01-01T03:29:19;2.70;99.90
22161;DHT22;49035;48.812;11.762;2023-01-01T03:31:47;2.80;99.90
22161;DHT22;49035;48.812;11.762;2023-01-01T03:34:20;2.80;99.90
22161;DHT22;49035;48.812;11.762;2023-01-01T03:36:50;2.70;99.90
22161;DHT22;49035;48.812;11.762;2023-01-01T03:39:44;2.70;99.90
22161;DHT22;49035;48.812;11.762;2023-01-01T03:42:28;2.70;99.90
22161;DHT22;49035;48.812;11.762;2023-01-01T03:47:47;2.70;99.90
22161;DHT22;49035;48.812;11.762;2023-01-01T03:50:13;2.70;99.90
22161;DHT22;49035;48.812;11.762;2023-01-01T03:53:12;2.70;99.90
22161;DHT22;49035;48.812;11.762;2023-01-01T03:55:45;2.80;99.90
22161;DHT22;49035;48.812;11.762;2023-01-01T03:58:27;2.90;99.90
22161;DHT22;49035;48.812;11.762;2023-01-01T04:01:36;3.00;99.90
22161;DHT22;49035;48.812;11.762;2023-01-01T04:04:04;3.00;99.90
22161;DHT22;49035;48.812;11.762;2023-01-01T04:06:32;2.90;99.90
22161;DHT22;49035;48.812;11.762;2023-01-01T04:08:58;2.90;99.90
22161;DHT22;49035;48.812;11.762;2023-01-01T04:11:27;2.70;99.90
22161;DHT22;49035;48.812;11.762;2023-01-01T04:14:12;2.80;99.90
22161;DHT22;49035;48.812;11.762;2023-01-01T04:16:38;2.60;99.90
22161;DHT22;49035;48.812;11.762;2023-01-01T04:19:04;2.50;99.90
22161;DHT22;49035;48.812;11.762;2023-01-01T04:21:33;2.60;99.90
22161;DHT22;49035;48.812;11.762;2023-01-01T04:23:58;2.60;99.90
22161;DHT22;49035;48.812;11.762;2023-01-01T04:26:24;2.60;99.90
22161;DHT22;49035;48.812;11.762;2023-01-01T04:28:49;2.50;99.90
22161;DHT22;49035;48.812;11.762;2023-01-01T04:31:15;2.40;99.90
22161;DHT22;49035;48.812;11.762;2023-01-01T04:33:41;2.40;99.90
22161;DHT22;49035;48.812;11.762;2023-01-01T04:36:08;2.20;99.90
22161;DHT22;49035;48.812;11.762;2023-01-01T04:38:35;2.20;99.90
22161;DHT22;49035;48.812;11.762;2023-01-01T04:41:02;2.20;99.90
22161;DHT22;49035;48.812;11.762;2023-01-01T04:43:29;2.10;99.90
22161;DHT22;49035;48.812;11.762;2023-01-01T04:45:59;2.10;99.90
22161;DHT22;49035;48.812;11.762;2023-01-01T04:48:26;2.10;99.90
22161;DHT22;49035;48.812;11.762;2023-01-01T04:50:59;2.20;99.90
22161;DHT22;49035;48.812;11.762;2023-01-01T04:53:28;2.30;99.90
22161;DHT22;49035;48.812;11.762;2023-01-01T04:55:54;2.30;99.90
22161;DHT22;49035;48.812;11.762;2023-01-01T04:58:20;2.30;99.90
22161;DHT22;49035;48.812;11.762;2023-01-01T05:00:50;2.20;99.90
22161;DHT22;49035;48.812;11.762;2023-01-01T05:03:16;2.30;99.90
22161;DHT22;49035;48.812;11.762;2023-01-01T05:05:42;2.40;99.90
22161;DHT22;49035;48.812;11.762;2023-01-01T05:08:08;2.30;99.90
22161;DHT22;49035;48.812;11.762;2023-01-01T05:10:33;2.10;99.90
22161;DHT22;49035;48.812;11.762;2023-01-01T05:12:59;2.00;99.90
22161;DHT22;49035;48.812;11.762;2023-01-01T05:15:25;1.80;99.90
22161;DHT22;49035;48.812;11.762;2023-01-01T05:17:50;1.80;99.90
22161;DHT22;49035;48.812;11.762;2023-01-01T05:20:16;1.70;99.90
22161;DHT22;49035;48.812;11.762;2023-01-01T05:22:41;1.60;99.90
22161;DHT22;49035;48.812;11.762;2023-01-01T05:25:09;1.60;99.90
22161;DHT22;49035;48.812;11.762;2023-01-01T05:27:35;1.60;99.90
22161;DHT22;49035;48.812;11.762;2023-01-01T05:30:00;1.80;99.90
22161;DHT22;49035;48.812;11.762;2023-01-01T05:32:26;1.90;99.90
22161;DHT22;49035;48.812;11.762;2023-01-01T05:34:52;1.90;99.90
22161;DHT22;49035;48.812;11.762;2023-01-01T05:37:18;1.80;99.90
22161;DHT22;49035;48.812;11.762;2023-01-01T05:39:44;1.90;99.90
22161;DHT22;49035;48.812;11.762;2023-01-01T05:42:09;2.10;99.90
22161;DHT22;49035;48.812;11.762;2023-01-01T05:44:35;2.00;99.90
22161;DHT22;49035;48.812;11.762;2023-01-01T05:47:00;1.80;99.90
22161;DHT22;49035;48.812;11.762;2023-01-01T05:49:26;1.80;99.90
22161;DHT22;49035;48.812;11.762;2023-01-01T05:51:52;1.70;99.90
22161;DHT22;49035;48.812;11.762;2023-01-01T05:54:18;1.60;99.90
22161;DHT22;49035;48.812;11.762;2023-01-01T05:56:43;1.50;99.90
22161;DHT22;49035;48.812;11.762;2023-01-01T05:59:09;1.40;99.90
22161;DHT22;49035;48.812;11.762;2023-01-01T06:01:35;1.30;99.90
22161;DHT22;49035;48.812;11.762;2023-01-01T06:04:01;1.20;99.90
22161;DHT22;49035;48.812;11.762;2023-01-01T06:06:29;1.30;99.90
22161;DHT22;49035;48.812;11.762;2023-01-01T06:08:58;1.40;99.90
22161;DHT22;49035;48.812;11.762;2023-01-01T06:11:24;1.50;99.90
22161;DHT22;49035;48.812;11.762;2023-01-01T06:13:54;1.60;99.90
22161;DHT22;49035;48.812;11.762;2023-01-01T06:16:20;1.50;99.90
22161;DHT22;49035;48.812;11.762;2023-01-01T06:18:46;1.50;99.90
22161;DHT22;49035;48.812;11.762;2023-01-01T06:21:17;1.40;99.90
22161;DHT22;49035;48.812;11.762;2023-01-01T06:23:44;1.20;99.90
22161;DHT22;49035;48.812;11.762;2023-01-01T06:26:15;1.00;99.90
22161;DHT22;49035;48.812;11.762;2023-01-01T06:28:42;1.10;99.90
22161;DHT22;49035;48.812;11.762;2023-01-01T06:31:10;0.90;99.90
22161;DHT22;49035;48.812;11.762;2023-01-01T06:33:36;0.90;99.90
22161;DHT22;49035;48.812;11.762;2023-01-01T06:36:04;1.00;99.90
22161;DHT22;49035;48.812;11.762;2023-01-01T06:38:34;1.10;99.90
22161;DHT22;49035;48.812;11.762;2023-01-01T06:41:12;1.00;99.90
22161;DHT22;49035;48.812;11.762;2023-01-01T06:43:37;1.00;99.90
22161;DHT22;49035;48.812;11.762;2023-01-01T06:46:06;1.00;99.90
22161;DHT22;49035;48.812;11.762;2023-01-01T06:48:34;1.20;99.90
22161;DHT22;49035;48.812;11.762;2023-01-01T06:51:08;1.10;99.90
22161;DHT22;49035;48.812;11.762;2023-01-01T06:53:34;1.10;99.90
22161;DHT22;49035;48.812;11.762;2023-01-01T06:56:00;1.00;99.90
22161;DHT22;49035;48.812;11.762;2023-01-01T06:58:26;1.10;99.90
22161;DHT22;49035;48.812;11.762;2023-01-01T07:00:51;1.10;99.90
22161;DHT22;49035;48.812;11.762;2023-01-01T07:03:17;1.10;99.90
22161;DHT22;49035;48.812;11.762;2023-01-01T07:05:43;1.00;99.90
22161;DHT22;49035;48.812;11.762;2023-01-01T07:08:08;1.00;99.90
22161;DHT22;49035;48.812;11.762;2023-01-01T07:10:34;1.00;99.90
22161;DHT22;49035;48.812;11.762;2023-01-01T07:12:59;0.90;99.90
22161;DHT22;49035;48.812;11.762;2023-01-01T07:15:26;0.90;99.90
22161;DHT22;49035;48.812;11.762;2023-01-01T07:17:51;1.10;99.90
22161;DHT22;49035;48.812;11.762;2023-01-01T07:20:17;1.10;99.90
22161;DHT22;49035;48.812;11.762;2023-01-01T07:22:43;1.40;99.90
22161;DHT22;49035;48.812;11.762;2023-01-01T07:25:11;1.50;99.90
22161;DHT22;49035;48.812;11.762;2023-01-01T07:27:38;1.50;99.90
22161;DHT22;49035;48.812;11.762;2023-01-01T07:30:04;1.40;99.90
22161;DHT22;49035;48.812;11.762;2023-01-01T07:32:29;1.40;99.90
22161;DHT22;49035;48.812;11.762;2023-01-01T07:34:55;1.30;99.90
22161;DHT22;49035;48.812;11.762;2023-01-01T07:37:20;1.40;99.90
22161;DHT22;49035;48.812;11.762;2023-01-01T07:39:50;1.50;99.90
22161;DHT22;49035;48.812;11.762;2023-01-01T07:42:16;1.50;99.90
22161;DHT22;49035;48.812;11.762;2023-01-01T07:44:42;1.60;99.90
22161;DHT22;49035;48.812;11.762;2023-01-01T07:47:22;1.60;99.90
22161;DHT22;49035;48.812;11.762;2023-01-01T07:49:47;1.70;99.90
22161;DHT22;49035;48.812;11.762;2023-01-01T07:52:13;1.70;99.90
22161;DHT22;49035;48.812;11.762;2023-01-01T07:54:38;1.70;99.90
22161;DHT22;49035;48.812;11.762;2023-01-01T07:57:04;1.70;99.90
22161;DHT22;49035;48.812;11.762;2023-01-01T07:59:30;1.80;99.90
22161;DHT22;49035;48.812;11.762;2023-01-01T08:01:55;2.00;99.90
22161;DHT22;49035;48.812;11.762;2023-01-01T08:04:21;2.20;99.90
22161;DHT22;49035;48.812;11.762;2023-01-01T08:06:46;2.20;99.90
22161;DHT22;49035;48.812;11.762;2023-01-01T08:09:12;2.30;99.90
22161;DHT22;49035;48.812;11.762;2023-01-01T08:11:38;2.30;99.90
22161;DHT22;49035;48.812;11.762;2023-01-01T08:14:03;2.40;99.90
22161;DHT22;49035;48.812;11.762;2023-01-01T08:16:29;2.50;99.90
22161;DHT22;49035;48.812;11.762;2023-01-01T08:18:55;2.50;99.90
22161;DHT22;49035;48.812;11.762;2023-01-01T08:21:20;2.60;99.90
22161;DHT22;49035;48.812;11.762;2023-01-01T08:23:46;2.70;99.90
22161;DHT22;49035;48.812;11.762;2023-01-01T08:26:14;2.70;99.90
22161;DHT22;49035;48.812;11.762;2023-01-01T08:28:40;2.90;99.90
22161;DHT22;49035;48.812;11.762;2023-01-01T08:31:06;3.10;99.90
22161;DHT22;49035;48.812;11.762;2023-01-01T08:33:31;3.00;99.90
22161;DHT22;49035;48.812;11.762;2023-01-01T08:35:57;3.00;99.90
22161;DHT22;49035;48.812;11.762;2023-01-01T08:38:23;3.10;99.90
22161;DHT22;49035;48.812;11.762;2023-01-01T08:40:48;3.10;99.90
22161;DHT22;49035;48.812;11.762;2023-01-01T08:43:14;3.30;99.90
22161;DHT22;49035;48.812;11.762;2023-01-01T08:45:40;3.30;99.90
22161;DHT22;49035;48.812;11.762;2023-01-01T08:48:05;3.30;99.90
22161;DHT22;49035;48.812;11.762;2023-01-01T08:50:31;3.30;99.90
22161;DHT22;49035;48.812;11.762;2023-01-01T08:52:58;3.30;99.90
22161;DHT22;49035;48.812;11.762;2023-01-01T08:55:23;3.40;99.90
22161;DHT22;49035;48.812;11.762;2023-01-01T08:57:49;3.60;99.90
22161;DHT22;49035;48.812;11.762;2023-01-01T09:00:15;3.80;99.90
22161;DHT22;49035;48.812;11.762;2023-01-01T09:02:41;4.00;99.90
22161;DHT22;49035;48.812;11.762;2023-01-01T09:05:08;4.20;99.90
22161;DHT22;49035;48.812;11.762;2023-01-01T09:07:33;4.40;99.90
22161;DHT22;49035;48.812;11.762;2023-01-01T09:09:59;4.40;99.90
22161;DHT22;49035;48.812;11.762;2023-01-01T09:12:24;4.50;99.90
22161;DHT22;49035;48.812;11.762;2023-01-01T09:14:50;4.70;99.90
22161;DHT22;49035;48.812;11.762;2023-01-01T09:17:16;4.90;99.90
22161;DHT22;49035;48.812;11.762;2023-01-01T09:19:41;5.20;99.90
22161;DHT22;49035;48.812;11.762;2023-01-01T09:22:11;5.40;99.90
22161;DHT22;49035;48.812;11.762;2023-01-01T09:24:36;5.60;99.90
22161;DHT22;49035;48.812;11.762;2023-01-01T09:27:02;5.80;99.90
22161;DHT22;49035;48.812;11.762;2023-01-01T09:29:28;6.00;99.90
22161;DHT22;49035;48.812;11.762;2023-01-01T09:31:53;6.20;99.90
22161;DHT22;49035;48.812;11.762;2023-01-01T09:34:19;6.40;99.90
22161;DHT22;49035;48.812;11.762;2023-01-01T09:36:45;6.60;99.90
22161;DHT22;49035;48.812;11.762;2023-01-01T09:39:13;6.70;99.90
22161;DHT22;49035;48.812;11.762;2023-01-01T09:47:05;7.00;99.90
22161;DHT22;49035;48.812;11.762;2023-01-01T09:49:41;7.20;99.90
22161;DHT22;49035;48.812;11.762;2023-01-01T09:52:12;7.40;99.90
22161;DHT22;49035;48.812;11.762;2023-01-01T09:57:06;7.60;99.90
22161;DHT22;49035;48.812;11.762;2023-01-01T09:59:35;7.50;99.90
22161;DHT22;49035;48.812;11.762;2023-01-01T10:07:36;7.80;99.90
22161;DHT22;49035;48.812;11.762;2023-01-01T10:13:24;8.00;99.90
22161;DHT22;49035;48.812;11.762;2023-01-01T10:16:12;8.10;99.90
22161;DHT22;49035;48.812;11.762;2023-01-01T10:18:40;8.20;99.90
22161;DHT22;49035;48.812;11.762;2023-01-01T10:21:16;8.30;99.90
22161;DHT22;49035;48.812;11.762;2023-01-01T10:23:53;8.30;99.90
22161;DHT22;49035;48.812;11.762;2023-01-01T10:26:22;8.30;99.90
22161;DHT22;49035;48.812;11.762;2023-01-01T10:29:08;8.40;99.90
22161;DHT22;49035;48.812;11.762;2023-01-01T10:31:46;8.50;99.90
22161;DHT22;49035;48.812;11.762;2023-01-01T10:34:23;8.80;99.90
22161;DHT22;49035;48.812;11.762;2023-01-01T10:36:55;8.90;99.90
22161;DHT22;49035;48.812;11.762;2023-01-01T10:39:22;9.00;99.90
22161;DHT22;49035;48.812;11.762;2023-01-01T10:41:48;9.10;99.90
22161;DHT22;49035;48.812;11.762;2023-01-01T10:44:27;9.00;99.90
22161;DHT22;49035;48.812;11.762;2023-01-01T10:46:57;9.10;99.90
22161;DHT22;49035;48.812;11.762;2023-01-01T10:49:23;9.20;99.90
22161;DHT22;49035;48.812;11.762;2023-01-01T10:51:53;9.40;99.90
22161;DHT22;49035;48.812;11.762;2023-01-01T10:54:38;9.50;99.90
22161;DHT22;49035;48.812;11.762;2023-01-01T10:57:17;9.60;99.90
22161;DHT22;49035;48.812;11.762;2023-01-01T10:59:45;9.70;99.90
22161;DHT22;49035;48.812;11.762;2023-01-01T11:02:16;9.80;99.90
22161;DHT22;49035;48.812;11.762;2023-01-01T11:04:42;10.10;99.90
22161;DHT22;49035;48.812;11.762;2023-01-01T11:07:07;10.30;99.90
22161;DHT22;49035;48.812;11.762;2023-01-01T11:09:33;10.50;99.90
22161;DHT22;49035;48.812;11.762;2023-01-01T11:12:05;10.60;99.90
22161;DHT22;49035;48.812;11.762;2023-01-01T11:14:37;10.80;99.90
22161;DHT22;49035;48.812;11.762;2023-01-01T11:17:05;10.90;99.90
22161;DHT22;49035;48.812;11.762;2023-01-01T11:19:36;11.00;99.90
22161;DHT22;49035;48.812;11.762;2023-01-01T11:22:03;11.10;99.90
22161;DHT22;49035;48.812;11.762;2023-01-01T11:24:31;11.30;99.90
22161;DHT22;49035;48.812;11.762;2023-01-01T11:29:48;11.40;99.90
22161;DHT22;49035;48.812;11.762;2023-01-01T11:32:28;11.60;99.90
22161;DHT22;49035;48.812;11.762;2023-01-01T11:35:02;11.80;99.90
22161;DHT22;49035;48.812;11.762;2023-01-01T11:37:32;11.90;99.90
22161;DHT22;49035;48.812;11.762;2023-01-01T11:39:59;12.00;99.90
22161;DHT22;49035;48.812;11.762;2023-01-01T11:42:31;12.00;99.90
22161;DHT22;49035;48.812;11.762;2023-01-01T11:45:12;12.10;99.90
22161;DHT22;49035;48.812;11.762;2023-01-01T11:47:42;12.20;99.90
22161;DHT22;49035;48.812;11.762;2023-01-01T11:52:58;12.50;99.90
22161;DHT22;49035;48.812;11.762;2023-01-01T11:55:44;12.70;99.90
22161;DHT22;49035;48.812;11.762;2023-01-01T11:58:25;12.80;99.90
22161;DHT22;49035;48.812;11.762;2023-01-01T12:00:58;12.90;99.90
22161;DHT22;49035;48.812;11.762;2023-01-01T12:06:31;13.00;99.90
22161;DHT22;49035;48.812;11.762;2023-01-01T12:17:16;13.40;99.90
22161;DHT22;49035;48.812;11.762;2023-01-01T12:19:55;13.30;99.90
22161;DHT22;49035;48.812;11.762;2023-01-01T12:22:24;13.30;99.90
22161;DHT22;49035;48.812;11.762;2023-01-01T12:24:50;13.40;99.90
22161;DHT22;49035;48.812;11.762;2023-01-01T12:33:20;13.70;99.90
22161;DHT22;49035;48.812;11.762;2023-01-01T12:36:17;13.80;99.90
22161;DHT22;49035;48.812;11.762;2023-01-01T12:41:54;14.00;99.90
22161;DHT22;49035;48.812;11.762;2023-01-01T12:58:35;14.40;99.90
22161;DHT22;49035;48.812;11.762;2023-01-01T13:01:19;14.30;99.90
22161;DHT22;49035;48.812;11.762;2023-01-01T13:04:09;14.30;99.90
22161;DHT22;49035;48.812;11.762;2023-01-01T13:09:18;14.30;99.90
22161;DHT22;49035;48.812;11.762;2023-01-01T13:12:21;14.40;99.90
22161;DHT22;49035;48.812;11.762;2023-01-01T13:14:44;14.40;99.90
22161;DHT22;49035;48.812;11.762;2023-01-01T13:19:43;14.40;99.90
22161;DHT22;49035;48.812;11.762;2023-01-01T13:38:48;14.30;99.90
22161;DHT22;49035;48.812;11.762;2023-01-01T13:52:04;14.30;99.90
22161;DHT22;49035;48.812;11.762;2023-01-01T14:00:23;14.20;99.90
22161;DHT22;49035;48.812;11.762;2023-01-01T14:02:58;14.20;99.90
22161;DHT22;49035;48.812;11.762;2023-01-01T14:05:31;14.20;99.90
22161;DHT22;49035;48.812;11.762;2023-01-01T14:07:57;14.20;99.90
22161;DHT22;49035;48.812;11.762;2023-01-01T14:10:34;14.20;99.90
22161;DHT22;49035;48.812;11.762;2023-01-01T14:13:14;14.20;99.90
22161;DHT22;49035;48.812;11.762;2023-01-01T14:16:02;14.20;99.90
22161;DHT22;49035;48.812;11.762;2023-01-01T14:18:41;14.20;99.90
22161;DHT22;49035;48.812;11.762;2023-01-01T14:21:19;14.20;99.90
22161;DHT22;49035;48.812;11.762;2023-01-01T14:23:50;14.10;99.90
22161;DHT22;49035;48.812;11.762;2023-01-01T14:26:19;14.10;99.90
22161;DHT22;49035;48.812;11.762;2023-01-01T14:28:45;14.00;99.90
22161;DHT22;49035;48.812;11.762;2023-01-01T14:31:16;14.00;99.90
22161;DHT22;49035;48.812;11.762;2023-01-01T14:33:43;14.00;99.90
22161;DHT22;49035;48.812;11.762;2023-01-01T14:36:25;14.00;99.90
22161;DHT22;49035;48.812;11.762;2023-01-01T14:38:56;14.00;99.90
22161;DHT22;49035;48.812;11.762;2023-01-01T14:41:27;14.00;99.90
22161;DHT22;49035;48.812;11.762;2023-01-01T14:43:57;13.90;99.90
22161;DHT22;49035;48.812;11.762;2023-01-01T14:46:27;13.80;99.90
22161;DHT22;49035;48.812;11.762;2023-01-01T14:48:59;13.50;99.90
22161;DHT22;49035;48.812;11.762;2023-01-01T14:51:26;13.30;99.90
22161;DHT22;49035;48.812;11.762;2023-01-01T14:53:56;13.00;99.90
22161;DHT22;49035;48.812;11.762;2023-01-01T14:56:34;12.80;99.90
22161;DHT22;49035;48.812;11.762;2023-01-01T15:01:32;12.40;99.90
22161;DHT22;49035;48.812;11.762;2023-01-01T15:04:16;12.20;99.90
22161;DHT22;49035;48.812;11.762;2023-01-01T15:06:42;11.90;99.90
22161;DHT22;49035;48.812;11.762;2023-01-01T15:09:14;11.70;99.90
22161;DHT22;49035;48.812;11.762;2023-01-01T15:11:40;11.40;99.90
22161;DHT22;49035;48.812;11.762;2023-01-01T15:14:36;11.30;99.90
22161;DHT22;49035;48.812;11.762;2023-01-01T15:17:04;10.90;99.90
22161;DHT22;49035;48.812;11.762;2023-01-01T15:19:30;10.60;99.90
22161;DHT22;49035;48.812;11.762;2023-01-01T15:21:57;10.30;99.90
22161;DHT22;49035;48.812;11.762;2023-01-01T15:24:23;10.10;99.90
22161;DHT22;49035;48.812;11.762;2023-01-01T15:26:59;9.90;99.90
22161;DHT22;49035;48.812;11.762;2023-01-01T15:29:34;9.80;99.90
22161;DHT22;49035;48.812;11.762;2023-01-01T15:32:10;9.60;99.90
22161;DHT22;49035;48.812;11.762;2023-01-01T15:39:50;9.20;99.90
22161;DHT22;49035;48.812;11.762;2023-01-01T15:42:32;9.10;99.90
22161;DHT22;49035;48.812;11.762;2023-01-01T15:47:51;9.00;99.90
22161;DHT22;49035;48.812;11.762;2023-01-01T15:50:22;8.80;99.90
22161;DHT22;49035;48.812;11.762;2023-01-01T15:52:50;8.60;99.90
22161;DHT22;49035;48.812;11.762;2023-01-01T15:55:17;8.40;99.90
22161;DHT22;49035;48.812;11.762;2023-01-01T15:57:46;8.00;99.90
22161;DHT22;49035;48.812;11.762;2023-01-01T16:00:21;7.70;99.90
22161;DHT22;49035;48.812;11.762;2023-01-01T16:02:52;7.50;99.90
22161;DHT22;49035;48.812;11.762;2023-01-01T16:05:26;7.30;99.90
22161;DHT22;49035;48.812;11.762;2023-01-01T16:08:04;7.30;99.90
22161;DHT22;49035;48.812;11.762;2023-01-01T16:10:31;7.20;99.90
22161;DHT22;49035;48.812;11.762;2023-01-01T16:12:57;7.10;99.90
22161;DHT22;49035;48.812;11.762;2023-01-01T16:15:24;7.00;99.90
22161;DHT22;49035;48.812;11.762;2023-01-01T16:17:50;7.00;99.90
22161;DHT22;49035;48.812;11.762;2023-01-01T16:20:17;6.80;99.90
22161;DHT22;49035;48.812;11.762;2023-01-01T16:22:43;6.60;99.90
22161;DHT22;49035;48.812;11.762;2023-01-01T16:25:17;6.50;99.90
22161;DHT22;49035;48.812;11.762;2023-01-01T16:27:43;6.30;99.90
22161;DHT22;49035;48.812;11.762;2023-01-01T16:30:10;6.20;99.90
22161;DHT22;49035;48.812;11.762;2023-01-01T16:32:36;6.10;99.90
22161;DHT22;49035;48.812;11.762;2023-01-01T16:35:03;6.10;99.90
22161;DHT22;49035;48.812;11.762;2023-01-01T16:37:30;6.10;99.90
22161;DHT22;49035;48.812;11.762;2023-01-01T16:39:56;6.40;99.90
22161;DHT22;49035;48.812;11.762;2023-01-01T16:42:22;6.70;99.90
22161;DHT22;49035;48.812;11.762;2023-01-01T16:44:48;7.10;99.90
22161;DHT22;49035;48.812;11.762;2023-01-01T16:47:13;6.90;99.90
22161;DHT22;49035;48.812;11.762;2023-01-01T16:49:39;6.70;99.90
22161;DHT22;49035;48.812;11.762;2023-01-01T16:52:04;6.50;99.90
22161;DHT22;49035;48.812;11.762;2023-01-01T16:54:30;6.70;99.90
22161;DHT22;49035;48.812;11.762;2023-01-01T16:56:56;6.70;99.90
22161;DHT22;49035;48.812;11.762;2023-01-01T16:59:21;6.60;99.90
22161;DHT22;49035;48.812;11.762;2023-01-01T17:01:48;6.50;99.90
22161;DHT22;49035;48.812;11.762;2023-01-01T17:04:14;6.50;99.90
22161;DHT22;49035;48.812;11.762;2023-01-01T17:06:40;6.40;99.90
22161;DHT22;49035;48.812;11.762;2023-01-01T17:09:06;6.30;99.90
22161;DHT22;49035;48.812;11.762;2023-01-01T17:11:32;6.10;99.90
22161;DHT22;49035;48.812;11.762;2023-01-01T17:13:59;6.00;99.90
22161;DHT22;49035;48.812;11.762;2023-01-01T17:16:25;5.90;99.90
22161;DHT22;49035;48.812;11.762;2023-01-01T17:18:54;5.70;99.90
22161;DHT22;49035;48.812;11.762;2023-01-01T17:21:20;5.50;99.90
22161;DHT22;49035;48.812;11.762;2023-01-01T17:23:46;5.40;99.90
22161;DHT22;49035;48.812;11.762;2023-01-01T17:26:14;5.40;99.90
22161;DHT22;49035;48.812;11.762;2023-01-01T17:28:41;5.40;99.90
22161;DHT22;49035;48.812;11.762;2023-01-01T17:31:10;5.50;99.90
22161;DHT22;49035;48.812;11.762;2023-01-01T17:33:36;5.70;99.90
22161;DHT22;49035;48.812;11.762;2023-01-01T17:36:03;5.80;99.90
22161;DHT22;49035;48.812;11.762;2023-01-01T17:38:29;5.80;99.90
22161;DHT22;49035;48.812;11.762;2023-01-01T17:41:04;5.90;99.90
22161;DHT22;49035;48.812;11.762;2023-01-01T17:43:35;5.60;99.90
22161;DHT22;49035;48.812;11.762;2023-01-01T17:46:06;5.40;99.90
22161;DHT22;49035;48.812;11.762;2023-01-01T17:48:32;5.30;99.90
22161;DHT22;49035;48.812;11.762;2023-01-01T17:50:59;5.40;99.90
22161;DHT22;49035;48.812;11.762;2023-01-01T17:53:24;5.60;99.90
22161;DHT22;49035;48.812;11.762;2023-01-01T17:55:50;5.50;99.90
22161;DHT22;49035;48.812;11.762;2023-01-01T17:58:16;5.30;99.90
22161;DHT22;49035;48.812;11.762;2023-01-01T18:00:41;5.30;99.90
22161;DHT22;49035;48.812;11.762;2023-01-01T18:03:11;5.30;99.90